sensor_id;sensor_type;location;lat;lon;timestamp;P1;durP1;ratioP1;P2;durP2;ratioP2
12467;SDS011;57850;52.922;6.256;2023-04-15T00:01:57;7.60;;;3.85;;
12467;SDS011;57850;52.922;6.256;2023-04-15T00:04:25;8.80;;;3.45;;
12467;SDS011;57850;52.922;6.256;2023-04-15T00:06:52;8.18;;;3.75;;
12467;SDS011;57850;52.922;6.256;2023-04-15T00:09:19;9.65;;;4.50;;
12467;SDS011;57850;52.922;6.256;2023-04-15T00:11:45;5.18;;;3.92;;
12467;SDS011;57850;52.922;6.256;2023-04-15T00:14:12;5.32;;;3.80;;
12467;SDS011;57850;52.922;6.256;2023-04-15T00:16:39;7.82;;;3.95;;
12467;SDS011;57850;52.922;6.256;2023-04-15T00:19:06;6.28;;;3.80;;
12467;SDS011;57850;52.922;6.256;2023-04-15T00:21:34;8.90;;;4.32;;
12467;SDS011;57850;52.922;6.256;2023-04-15T00:24:01;8.50;;;4.20;;
12467;SDS011;57850;52.922;6.256;2023-04-15T00:26:27;9.43;;;4.25;;
12467;SDS011;57850;52.922;6.256;2023-04-15T00:28:54;8.45;;;3.78;;
12467;SDS011;57850;52.922;6.256;2023-04-15T00:31:21;8.35;;;4.03;;
12467;SDS011;57850;52.922;6.256;2023-04-15T00:33:47;14.25;;;4.95;;
12467;SDS011;57850;52.922;6.256;2023-04-15T00:36:13;10.38;;;4.50;;
12467;SDS011;57850;52.922;6.256;2023-04-15T00:38:42;6.72;;;4.13;;
12467;SDS011;57850;52.922;6.256;2023-04-15T00:41:08;7.25;;;4.20;;
12467;SDS011;57850;52.922;6.256;2023-04-15T00:43:35;9.38;;;4.13;;
12467;SDS011;57850;52.922;6.256;2023-04-15T00:46:03;5.97;;;4.20;;
12467;SDS011;57850;52.922;6.256;2023-04-15T00:48:30;9.00;;;4.28;;
12467;SDS011;57850;52.922;6.256;2023-04-15T00:50:57;8.05;;;4.00;;
12467;SDS011;57850;52.922;6.256;2023-04-15T00:53:24;8.93;;;4.80;;
12467;SDS011;57850;52.922;6.256;2023-04-15T00:55:52;7.35;;;4.18;;
12467;SDS011;57850;52.922;6.256;2023-04-15T00:58:19;9.48;;;4.38;;
12467;SDS011;57850;52.922;6.256;2023-04-15T01:00:45;8.43;;;4.70;;
12467;SDS011;57850;52.922;6.256;2023-04-15T01:03:13;8.23;;;4.75;;
12467;SDS011;57850;52.922;6.256;2023-04-15T01:05:40;7.53;;;4.55;;
12467;SDS011;57850;52.922;6.256;2023-04-15T01:08:06;8.00;;;4.50;;
12467;SDS011;57850;52.922;6.256;2023-04-15T01:10:33;8.98;;;4.70;;
12467;SDS011;57850;52.922;6.256;2023-04-15T01:13:01;8.57;;;4.57;;
12467;SDS011;57850;52.922;6.256;2023-04-15T01:15:28;13.15;;;5.13;;
12467;SDS011;57850;52.922;6.256;2023-04-15T01:17:56;7.75;;;4.65;;
12467;SDS011;57850;52.922;6.256;2023-04-15T01:20:23;12.15;;;4.68;;
12467;SDS011;57850;52.922;6.256;2023-04-15T01:22:50;8.05;;;4.57;;
12467;SDS011;57850;52.922;6.256;2023-04-15T01:25:17;9.82;;;5.00;;
12467;SDS011;57850;52.922;6.256;2023-04-15T01:27:47;6.93;;;4.70;;
12467;SDS011;57850;52.922;6.256;2023-04-15T01:30:13;9.05;;;4.93;;
12467;SDS011;57850;52.922;6.256;2023-04-15T01:32:40;9.63;;;4.85;;
12467;SDS011;57850;52.922;6.256;2023-04-15T01:35:07;7.40;;;4.55;;
12467;SDS011;57850;52.922;6.256;2023-04-15T01:37:34;8.95;;;5.07;;
12467;SDS011;57850;52.922;6.256;2023-04-15T01:40:02;8.30;;;5.07;;
12467;SDS011;57850;52.922;6.256;2023-04-15T01:42:28;8.05;;;4.50;;
12467;SDS011;57850;52.922;6.256;2023-04-15T01:44:57;12.80;;;5.40;;
12467;SDS011;57850;52.922;6.256;2023-04-15T01:47:23;7.90;;;5.18;;
12467;SDS011;57850;52.922;6.256;2023-04-15T01:49:50;8.23;;;5.30;;
12467;SDS011;57850;52.922;6.256;2023-04-15T01:52:16;9.07;;;5.05;;
12467;SDS011;57850;52.922;6.256;2023-04-15T01:54:43;8.93;;;5.22;;
12467;SDS011;57850;52.922;6.256;2023-04-15T01:57:10;9.32;;;5.22;;
12467;SDS011;57850;52.922;6.256;2023-04-15T01:59:36;9.90;;;5.47;;
12467;SDS011;57850;52.922;6.256;2023-04-15T02:02:04;7.38;;;5.13;;
12467;SDS011;57850;52.922;6.256;2023-04-15T02:04:31;9.40;;;5.78;;
12467;SDS011;57850;52.922;6.256;2023-04-15T02:06:58;8.73;;;5.38;;
12467;SDS011;57850;52.922;6.256;2023-04-15T02:09:24;11.40;;;5.93;;
12467;SDS011;57850;52.922;6.256;2023-04-15T02:11:51;9.50;;;5.65;;
12467;SDS011;57850;52.922;6.256;2023-04-15T02:14:18;7.25;;;4.90;;
12467;SDS011;57850;52.922;6.256;2023-04-15T02:16:44;9.45;;;4.80;;
12467;SDS011;57850;52.922;6.256;2023-04-15T02:19:12;10.98;;;5.75;;
12467;SDS011;57850;52.922;6.256;2023-04-15T02:21:39;9.27;;;5.47;;
12467;SDS011;57850;52.922;6.256;2023-04-15T02:24:05;9.85;;;5.50;;
12467;SDS011;57850;52.922;6.256;2023-04-15T02:26:32;8.60;;;5.90;;
12467;SDS011;57850;52.922;6.256;2023-04-15T02:28:58;9.32;;;5.68;;
12467;SDS011;57850;52.922;6.256;2023-04-15T02:31:26;10.15;;;6.00;;
12467;SDS011;57850;52.922;6.256;2023-04-15T02:33:52;10.85;;;5.75;;
12467;SDS011;57850;52.922;6.256;2023-04-15T02:36:20;8.88;;;6.15;;
12467;SDS011;57850;52.922;6.256;2023-04-15T02:38:47;8.85;;;6.10;;
12467;SDS011;57850;52.922;6.256;2023-04-15T02:41:14;10.45;;;5.97;;
12467;SDS011;57850;52.922;6.256;2023-04-15T02:43:41;9.35;;;5.63;;
12467;SDS011;57850;52.922;6.256;2023-04-15T02:46:08;8.50;;;6.00;;
12467;SDS011;57850;52.922;6.256;2023-04-15T02:48:38;8.57;;;6.25;;
12467;SDS011;57850;52.922;6.256;2023-04-15T02:51:12;13.55;;;6.43;;
12467;SDS011;57850;52.922;6.256;2023-04-15T02:53:41;12.13;;;6.32;;
12467;SDS011;57850;52.922;6.256;2023-04-15T02:56:07;12.45;;;6.28;;
12467;SDS011;57850;52.922;6.256;2023-04-15T02:58:34;11.15;;;5.95;;
12467;SDS011;57850;52.922;6.256;2023-04-15T03:01:00;10.00;;;6.57;;
12467;SDS011;57850;52.922;6.256;2023-04-15T03:03:27;12.52;;;6.40;;
12467;SDS011;57850;52.922;6.256;2023-04-15T03:05:54;10.20;;;6.57;;
12467;SDS011;57850;52.922;6.256;2023-04-15T03:08:20;7.95;;;6.80;;
12467;SDS011;57850;52.922;6.256;2023-04-15T03:10:48;9.82;;;6.30;;
12467;SDS011;57850;52.922;6.256;2023-04-15T03:13:16;8.35;;;6.93;;
12467;SDS011;57850;52.922;6.256;2023-04-15T03:15:43;11.02;;;6.47;;
12467;SDS011;57850;52.922;6.256;2023-04-15T03:18:11;8.73;;;6.25;;
12467;SDS011;57850;52.922;6.256;2023-04-15T03:20:38;9.88;;;6.53;;
12467;SDS011;57850;52.922;6.256;2023-04-15T03:23:04;9.48;;;6.22;;
12467;SDS011;57850;52.922;6.256;2023-04-15T03:25:31;13.45;;;7.20;;
12467;SDS011;57850;52.922;6.256;2023-04-15T03:27:58;11.95;;;6.93;;
12467;SDS011;57850;52.922;6.256;2023-04-15T03:30:25;11.75;;;7.55;;
12467;SDS011;57850;52.922;6.256;2023-04-15T03:32:52;11.07;;;8.13;;
12467;SDS011;57850;52.922;6.256;2023-04-15T03:35:18;11.95;;;8.35;;
12467;SDS011;57850;52.922;6.256;2023-04-15T03:37:45;11.20;;;8.65;;
12467;SDS011;57850;52.922;6.256;2023-04-15T03:40:13;10.13;;;8.90;;
12467;SDS011;57850;52.922;6.256;2023-04-15T03:42:39;14.15;;;8.52;;
12467;SDS011;57850;52.922;6.256;2023-04-15T03:45:08;10.73;;;8.57;;
12467;SDS011;57850;52.922;6.256;2023-04-15T03:47:35;12.75;;;9.10;;
12467;SDS011;57850;52.922;6.256;2023-04-15T03:50:01;12.75;;;9.27;;
12467;SDS011;57850;52.922;6.256;2023-04-15T03:52:28;12.18;;;9.20;;
12467;SDS011;57850;52.922;6.256;2023-04-15T03:54:55;11.85;;;8.88;;
12467;SDS011;57850;52.922;6.256;2023-04-15T03:57:22;12.80;;;8.90;;
12467;SDS011;57850;52.922;6.256;2023-04-15T03:59:48;14.38;;;9.13;;
12467;SDS011;57850;52.922;6.256;2023-04-15T04:02:16;10.55;;;8.55;;
12467;SDS011;57850;52.922;6.256;2023-04-15T04:04:43;13.90;;;8.90;;
12467;SDS011;57850;52.922;6.256;2023-04-15T04:07:13;12.98;;;9.32;;
12467;SDS011;57850;52.922;6.256;2023-04-15T04:09:40;12.37;;;8.83;;
12467;SDS011;57850;52.922;6.256;2023-04-15T04:12:07;14.43;;;9.55;;
12467;SDS011;57850;52.922;6.256;2023-04-15T04:14:33;14.02;;;9.02;;
12467;SDS011;57850;52.922;6.256;2023-04-15T04:17:00;13.15;;;9.43;;
12467;SDS011;57850;52.922;6.256;2023-04-15T04:19:28;12.10;;;9.07;;
12467;SDS011;57850;52.922;6.256;2023-04-15T04:21:55;12.52;;;8.95;;
12467;SDS011;57850;52.922;6.256;2023-04-15T04:24:21;12.93;;;9.27;;
12467;SDS011;57850;52.922;6.256;2023-04-15T04:26:47;12.63;;;9.00;;
12467;SDS011;57850;52.922;6.256;2023-04-15T04:29:14;11.40;;;9.50;;
12467;SDS011;57850;52.922;6.256;2023-04-15T04:31:41;12.70;;;9.07;;
12467;SDS011;57850;52.922;6.256;2023-04-15T04:34:07;14.60;;;9.90;;
12467;SDS011;57850;52.922;6.256;2023-04-15T04:36:35;13.52;;;9.25;;
12467;SDS011;57850;52.922;6.256;2023-04-15T04:39:02;13.80;;;9.98;;
12467;SDS011;57850;52.922;6.256;2023-04-15T04:41:28;14.75;;;10.20;;
12467;SDS011;57850;52.922;6.256;2023-04-15T04:43:56;15.02;;;10.65;;
12467;SDS011;57850;52.922;6.256;2023-04-15T04:46:22;13.57;;;10.32;;
12467;SDS011;57850;52.922;6.256;2023-04-15T04:48:49;16.02;;;10.52;;
12467;SDS011;57850;52.922;6.256;2023-04-15T04:51:15;12.63;;;9.68;;
12467;SDS011;57850;52.922;6.256;2023-04-15T04:53:44;14.00;;;9.75;;
12467;SDS011;57850;52.922;6.256;2023-04-15T04:56:10;13.65;;;10.82;;
12467;SDS011;57850;52.922;6.256;2023-04-15T04:58:37;15.02;;;10.02;;
12467;SDS011;57850;52.922;6.256;2023-04-15T05:01:03;16.65;;;10.75;;
12467;SDS011;57850;52.922;6.256;2023-04-15T05:03:31;16.80;;;10.88;;
12467;SDS011;57850;52.922;6.256;2023-04-15T05:05:57;16.95;;;12.23;;
12467;SDS011;57850;52.922;6.256;2023-04-15T05:08:24;15.07;;;10.70;;
12467;SDS011;57850;52.922;6.256;2023-04-15T05:10:52;14.85;;;11.75;;
12467;SDS011;57850;52.922;6.256;2023-04-15T05:13:19;16.13;;;11.48;;
12467;SDS011;57850;52.922;6.256;2023-04-15T05:15:45;17.23;;;12.27;;
12467;SDS011;57850;52.922;6.256;2023-04-15T05:18:12;19.00;;;12.18;;
12467;SDS011;57850;52.922;6.256;2023-04-15T05:20:39;15.83;;;11.90;;
12467;SDS011;57850;52.922;6.256;2023-04-15T05:23:05;17.30;;;11.82;;
12467;SDS011;57850;52.922;6.256;2023-04-15T05:25:32;16.38;;;12.60;;
12467;SDS011;57850;52.922;6.256;2023-04-15T05:27:59;17.83;;;11.95;;
12467;SDS011;57850;52.922;6.256;2023-04-15T05:30:27;13.30;;;11.32;;
12467;SDS011;57850;52.922;6.256;2023-04-15T05:32:53;17.70;;;12.13;;
12467;SDS011;57850;52.922;6.256;2023-04-15T05:35:23;23.55;;;13.38;;
12467;SDS011;57850;52.922;6.256;2023-04-15T05:37:49;18.55;;;12.70;;
12467;SDS011;57850;52.922;6.256;2023-04-15T05:40:16;16.20;;;11.50;;
12467;SDS011;57850;52.922;6.256;2023-04-15T05:42:42;18.20;;;12.77;;
12467;SDS011;57850;52.922;6.256;2023-04-15T05:45:11;18.20;;;13.07;;
12467;SDS011;57850;52.922;6.256;2023-04-15T05:47:37;18.38;;;11.85;;
12467;SDS011;57850;52.922;6.256;2023-04-15T05:50:04;19.15;;;12.88;;
12467;SDS011;57850;52.922;6.256;2023-04-15T05:52:32;18.77;;;12.18;;
12467;SDS011;57850;52.922;6.256;2023-04-15T05:54:58;21.00;;;12.70;;
12467;SDS011;57850;52.922;6.256;2023-04-15T05:57:25;18.05;;;12.43;;
12467;SDS011;57850;52.922;6.256;2023-04-15T05:59:52;16.73;;;11.98;;
12467;SDS011;57850;52.922;6.256;2023-04-15T06:02:21;16.50;;;11.50;;
12467;SDS011;57850;52.922;6.256;2023-04-15T06:04:47;14.52;;;11.48;;
12467;SDS011;57850;52.922;6.256;2023-04-15T06:07:14;15.15;;;10.95;;
12467;SDS011;57850;52.922;6.256;2023-04-15T06:09:40;18.17;;;11.48;;
12467;SDS011;57850;52.922;6.256;2023-04-15T06:12:07;14.20;;;10.23;;
12467;SDS011;57850;52.922;6.256;2023-04-15T06:14:36;13.98;;;10.68;;
12467;SDS011;57850;52.922;6.256;2023-04-15T06:17:02;16.90;;;11.23;;
12467;SDS011;57850;52.922;6.256;2023-04-15T06:19:31;15.15;;;10.65;;
12467;SDS011;57850;52.922;6.256;2023-04-15T06:21:58;15.85;;;11.27;;
12467;SDS011;57850;52.922;6.256;2023-04-15T06:24:26;13.45;;;10.85;;
12467;SDS011;57850;52.922;6.256;2023-04-15T06:26:52;15.43;;;10.57;;
12467;SDS011;57850;52.922;6.256;2023-04-15T06:29:19;14.35;;;10.65;;
12467;SDS011;57850;52.922;6.256;2023-04-15T06:31:46;14.75;;;11.27;;
12467;SDS011;57850;52.922;6.256;2023-04-15T06:34:13;15.43;;;11.10;;
12467;SDS011;57850;52.922;6.256;2023-04-15T06:36:41;13.63;;;10.40;;
12467;SDS011;57850;52.922;6.256;2023-04-15T06:39:07;12.98;;;10.35;;
12467;SDS011;57850;52.922;6.256;2023-04-15T06:41:34;14.07;;;10.02;;
12467;SDS011;57850;52.922;6.256;2023-04-15T06:44:01;12.50;;;9.18;;
12467;SDS011;57850;52.922;6.256;2023-04-15T06:46:28;12.40;;;10.30;;
12467;SDS011;57850;52.922;6.256;2023-04-15T06:48:54;13.75;;;10.18;;
12467;SDS011;57850;52.922;6.256;2023-04-15T06:51:21;13.98;;;10.77;;
12467;SDS011;57850;52.922;6.256;2023-04-15T06:53:49;13.98;;;11.55;;
12467;SDS011;57850;52.922;6.256;2023-04-15T06:56:16;15.30;;;11.90;;
12467;SDS011;57850;52.922;6.256;2023-04-15T06:58:42;15.05;;;11.30;;
12467;SDS011;57850;52.922;6.256;2023-04-15T07:01:09;17.80;;;11.48;;
12467;SDS011;57850;52.922;6.256;2023-04-15T07:03:35;16.75;;;11.52;;
12467;SDS011;57850;52.922;6.256;2023-04-15T07:06:02;13.80;;;10.27;;
12467;SDS011;57850;52.922;6.256;2023-04-15T07:08:31;15.07;;;11.00;;
12467;SDS011;57850;52.922;6.256;2023-04-15T07:10:59;13.65;;;11.23;;
12467;SDS011;57850;52.922;6.256;2023-04-15T07:13:26;15.73;;;10.60;;
12467;SDS011;57850;52.922;6.256;2023-04-15T07:15:55;14.40;;;11.38;;
12467;SDS011;57850;52.922;6.256;2023-04-15T07:18:21;13.13;;;10.15;;
12467;SDS011;57850;52.922;6.256;2023-04-15T07:20:48;15.82;;;11.05;;
12467;SDS011;57850;52.922;6.256;2023-04-15T07:23:14;12.80;;;10.38;;
12467;SDS011;57850;52.922;6.256;2023-04-15T07:25:41;13.25;;;10.48;;
12467;SDS011;57850;52.922;6.256;2023-04-15T07:28:09;14.52;;;11.00;;
12467;SDS011;57850;52.922;6.256;2023-04-15T07:30:36;13.23;;;9.98;;
12467;SDS011;57850;52.922;6.256;2023-04-15T07:33:03;13.05;;;9.40;;
12467;SDS011;57850;52.922;6.256;2023-04-15T07:35:31;15.27;;;9.35;;
12467;SDS011;57850;52.922;6.256;2023-04-15T07:37:57;12.48;;;9.75;;
12467;SDS011;57850;52.922;6.256;2023-04-15T07:40:24;15.52;;;10.32;;
12467;SDS011;57850;52.922;6.256;2023-04-15T07:42:50;16.98;;;10.20;;
12467;SDS011;57850;52.922;6.256;2023-04-15T07:45:18;14.15;;;9.57;;
12467;SDS011;57850;52.922;6.256;2023-04-15T07:47:45;11.45;;;9.48;;
12467;SDS011;57850;52.922;6.256;2023-04-15T07:50:11;24.80;;;17.80;;
12467;SDS011;57850;52.922;6.256;2023-04-15T07:52:38;13.05;;;8.77;;
12467;SDS011;57850;52.922;6.256;2023-04-15T07:55:05;11.38;;;8.68;;
12467;SDS011;57850;52.922;6.256;2023-04-15T07:57:33;10.57;;;7.57;;
12467;SDS011;57850;52.922;6.256;2023-04-15T08:00:00;11.15;;;8.77;;
12467;SDS011;57850;52.922;6.256;2023-04-15T08:02:31;11.18;;;7.68;;
12467;SDS011;57850;52.922;6.256;2023-04-15T08:04:57;8.88;;;7.43;;
12467;SDS011;57850;52.922;6.256;2023-04-15T08:07:26;11.55;;;7.97;;
12467;SDS011;57850;52.922;6.256;2023-04-15T08:09:53;10.63;;;7.43;;
12467;SDS011;57850;52.922;6.256;2023-04-15T08:12:20;8.52;;;6.43;;
12467;SDS011;57850;52.922;6.256;2023-04-15T08:14:46;9.52;;;7.05;;
12467;SDS011;57850;52.922;6.256;2023-04-15T08:17:13;7.35;;;5.95;;
12467;SDS011;57850;52.922;6.256;2023-04-15T08:19:41;8.30;;;6.00;;
12467;SDS011;57850;52.922;6.256;2023-04-15T08:22:08;6.82;;;5.65;;
12467;SDS011;57850;52.922;6.256;2023-04-15T08:24:36;7.47;;;5.75;;
12467;SDS011;57850;52.922;6.256;2023-04-15T08:27:02;8.13;;;5.47;;
12467;SDS011;57850;52.922;6.256;2023-04-15T08:29:29;5.85;;;4.32;;
12467;SDS011;57850;52.922;6.256;2023-04-15T08:31:58;8.35;;;4.28;;
12467;SDS011;57850;52.922;6.256;2023-04-15T08:34:25;6.45;;;4.40;;
12467;SDS011;57850;52.922;6.256;2023-04-15T08:36:53;7.75;;;4.55;;
12467;SDS011;57850;52.922;6.256;2023-04-15T08:39:20;6.97;;;4.50;;
12467;SDS011;57850;52.922;6.256;2023-04-15T08:41:47;6.90;;;4.22;;
12467;SDS011;57850;52.922;6.256;2023-04-15T08:44:18;5.93;;;4.68;;
12467;SDS011;57850;52.922;6.256;2023-04-15T08:46:46;9.07;;;4.97;;
12467;SDS011;57850;52.922;6.256;2023-04-15T08:49:13;5.18;;;4.65;;
12467;SDS011;57850;52.922;6.256;2023-04-15T08:51:42;6.22;;;4.28;;
12467;SDS011;57850;52.922;6.256;2023-04-15T08:54:11;7.20;;;4.90;;
12467;SDS011;57850;52.922;6.256;2023-04-15T08:56:38;5.50;;;4.07;;
12467;SDS011;57850;52.922;6.256;2023-04-15T08:59:05;5.55;;;4.55;;
12467;SDS011;57850;52.922;6.256;2023-04-15T09:01:32;9.82;;;4.65;;
12467;SDS011;57850;52.922;6.256;2023-04-15T09:03:59;7.63;;;4.65;;
12467;SDS011;57850;52.922;6.256;2023-04-15T09:06:31;6.88;;;4.65;;
12467;SDS011;57850;52.922;6.256;2023-04-15T09:08:59;6.38;;;4.55;;
12467;SDS011;57850;52.922;6.256;2023-04-15T09:11:27;7.53;;;5.40;;
12467;SDS011;57850;52.922;6.256;2023-04-15T09:13:57;5.05;;;4.53;;
12467;SDS011;57850;52.922;6.256;2023-04-15T09:16:23;6.22;;;4.50;;
12467;SDS011;57850;52.922;6.256;2023-04-15T09:18:50;6.10;;;4.50;;
12467;SDS011;57850;52.922;6.256;2023-04-15T09:21:17;6.05;;;4.10;;
12467;SDS011;57850;52.922;6.256;2023-04-15T09:23:53;7.80;;;4.20;;
12467;SDS011;57850;52.922;6.256;2023-04-15T09:26:31;5.40;;;3.90;;
12467;SDS011;57850;52.922;6.256;2023-04-15T09:29:03;4.32;;;3.55;;
12467;SDS011;57850;52.922;6.256;2023-04-15T09:31:31;7.22;;;3.53;;
12467;SDS011;57850;52.922;6.256;2023-04-15T09:33:57;4.53;;;3.38;;
12467;SDS011;57850;52.922;6.256;2023-04-15T09:36:24;5.90;;;3.72;;
12467;SDS011;57850;52.922;6.256;2023-04-15T09:38:54;7.40;;;3.88;;
12467;SDS011;57850;52.922;6.256;2023-04-15T09:41:21;7.57;;;3.03;;
12467;SDS011;57850;52.922;6.256;2023-04-15T09:43:50;6.78;;;3.30;;
12467;SDS011;57850;52.922;6.256;2023-04-15T09:46:16;3.85;;;3.35;;
12467;SDS011;57850;52.922;6.256;2023-04-15T09:48:43;8.20;;;3.47;;
12467;SDS011;57850;52.922;6.256;2023-04-15T09:51:10;4.20;;;2.90;;
12467;SDS011;57850;52.922;6.256;2023-04-15T09:53:36;6.15;;;3.85;;
12467;SDS011;57850;52.922;6.256;2023-04-15T09:56:03;6.60;;;2.88;;
12467;SDS011;57850;52.922;6.256;2023-04-15T09:58:32;5.13;;;3.40;;
12467;SDS011;57850;52.922;6.256;2023-04-15T10:01:03;4.45;;;2.97;;
12467;SDS011;57850;52.922;6.256;2023-04-15T10:03:32;11.35;;;3.40;;
12467;SDS011;57850;52.922;6.256;2023-04-15T10:06:01;3.88;;;2.97;;
12467;SDS011;57850;52.922;6.256;2023-04-15T10:08:30;4.25;;;2.80;;
12467;SDS011;57850;52.922;6.256;2023-04-15T10:10:59;3.70;;;2.42;;
12467;SDS011;57850;52.922;6.256;2023-04-15T10:13:28;3.22;;;2.50;;
12467;SDS011;57850;52.922;6.256;2023-04-15T10:16:04;4.28;;;2.10;;
12467;SDS011;57850;52.922;6.256;2023-04-15T10:18:33;3.17;;;2.42;;
12467;SDS011;57850;52.922;6.256;2023-04-15T10:21:01;4.63;;;2.70;;
12467;SDS011;57850;52.922;6.256;2023-04-15T10:23:27;2.60;;;1.90;;
12467;SDS011;57850;52.922;6.256;2023-04-15T10:25:54;2.67;;;1.90;;
12467;SDS011;57850;52.922;6.256;2023-04-15T10:28:22;4.85;;;2.00;;
12467;SDS011;57850;52.922;6.256;2023-04-15T10:30:49;2.25;;;1.52;;
12467;SDS011;57850;52.922;6.256;2023-04-15T10:33:20;2.22;;;1.77;;
12467;SDS011;57850;52.922;6.256;2023-04-15T10:35:48;2.35;;;1.50;;
12467;SDS011;57850;52.922;6.256;2023-04-15T10:38:32;3.90;;;2.17;;
12467;SDS011;57850;52.922;6.256;2023-04-15T10:41:16;2.40;;;1.42;;
12467;SDS011;57850;52.922;6.256;2023-04-15T10:43:45;2.20;;;1.50;;
12467;SDS011;57850;52.922;6.256;2023-04-15T10:46:15;2.80;;;1.80;;
12467;SDS011;57850;52.922;6.256;2023-04-15T10:48:47;2.90;;;2.00;;
12467;SDS011;57850;52.922;6.256;2023-04-15T10:51:14;3.72;;;1.63;;
12467;SDS011;57850;52.922;6.256;2023-04-15T10:53:41;3.03;;;1.40;;
12467;SDS011;57850;52.922;6.256;2023-04-15T10:56:08;3.38;;;3.00;;
12467;SDS011;57850;52.922;6.256;2023-04-15T10:58:40;4.75;;;2.00;;
12467;SDS011;57850;52.922;6.256;2023-04-15T11:01:07;2.20;;;2.00;;
12467;SDS011;57850;52.922;6.256;2023-04-15T11:03:35;2.88;;;2.58;;
12467;SDS011;57850;52.922;6.256;2023-04-15T11:06:04;2.33;;;2.00;;
12467;SDS011;57850;52.922;6.256;2023-04-15T11:11:22;2.95;;;2.38;;
12467;SDS011;57850;52.922;6.256;2023-04-15T11:14:13;3.30;;;2.15;;
12467;SDS011;57850;52.922;6.256;2023-04-15T11:16:41;2.33;;;1.77;;
12467;SDS011;57850;52.922;6.256;2023-04-15T11:19:08;1.88;;;1.70;;
12467;SDS011;57850;52.922;6.256;2023-04-15T11:21:36;2.05;;;1.60;;
12467;SDS011;57850;52.922;6.256;2023-04-15T11:24:03;3.85;;;2.00;;
12467;SDS011;57850;52.922;6.256;2023-04-15T11:26:31;2.55;;;1.73;;
12467;SDS011;57850;52.922;6.256;2023-04-15T11:28:58;3.17;;;2.08;;
12467;SDS011;57850;52.922;6.256;2023-04-15T11:31:25;2.40;;;1.75;;
12467;SDS011;57850;52.922;6.256;2023-04-15T11:33:53;2.92;;;1.80;;
12467;SDS011;57850;52.922;6.256;2023-04-15T11:36:23;2.42;;;1.75;;
12467;SDS011;57850;52.922;6.256;2023-04-15T11:38:52;2.15;;;1.85;;
12467;SDS011;57850;52.922;6.256;2023-04-15T11:41:19;3.95;;;2.25;;
12467;SDS011;57850;52.922;6.256;2023-04-15T11:43:47;3.72;;;2.00;;
12467;SDS011;57850;52.922;6.256;2023-04-15T11:46:13;6.78;;;2.00;;
12467;SDS011;57850;52.922;6.256;2023-04-15T11:48:41;3.42;;;1.90;;
12467;SDS011;57850;52.922;6.256;2023-04-15T11:51:10;2.53;;;1.88;;
12467;SDS011;57850;52.922;6.256;2023-04-15T11:53:38;4.93;;;2.10;;
12467;SDS011;57850;52.922;6.256;2023-04-15T11:56:08;5.00;;;2.47;;
12467;SDS011;57850;52.922;6.256;2023-04-15T11:58:36;3.65;;;1.98;;
12467;SDS011;57850;52.922;6.256;2023-04-15T12:01:04;5.25;;;2.50;;
12467;SDS011;57850;52.922;6.256;2023-04-15T12:03:35;4.30;;;2.55;;
12467;SDS011;57850;52.922;6.256;2023-04-15T12:06:03;5.75;;;2.42;;
12467;SDS011;57850;52.922;6.256;2023-04-15T12:08:47;5.80;;;2.65;;
12467;SDS011;57850;52.922;6.256;2023-04-15T12:11:16;7.15;;;2.70;;
12467;SDS011;57850;52.922;6.256;2023-04-15T12:13:43;2.90;;;2.05;;
12467;SDS011;57850;52.922;6.256;2023-04-15T12:16:10;4.38;;;2.50;;
12467;SDS011;57850;52.922;6.256;2023-04-15T12:18:37;3.17;;;1.95;;
12467;SDS011;57850;52.922;6.256;2023-04-15T12:21:08;8.55;;;2.35;;
12467;SDS011;57850;52.922;6.256;2023-04-15T12:23:35;4.32;;;2.45;;
12467;SDS011;57850;52.922;6.256;2023-04-15T12:26:03;4.47;;;2.22;;
12467;SDS011;57850;52.922;6.256;2023-04-15T12:28:33;6.85;;;2.35;;
12467;SDS011;57850;52.922;6.256;2023-04-15T12:31:05;8.93;;;2.50;;
12467;SDS011;57850;52.922;6.256;2023-04-15T12:33:32;7.05;;;2.40;;
12467;SDS011;57850;52.922;6.256;2023-04-15T12:35:59;4.32;;;2.38;;
12467;SDS011;57850;52.922;6.256;2023-04-15T12:38:26;7.43;;;2.30;;
12467;SDS011;57850;52.922;6.256;2023-04-15T12:40:52;4.38;;;2.17;;
12467;SDS011;57850;52.922;6.256;2023-04-15T12:43:19;6.60;;;1.95;;
12467;SDS011;57850;52.922;6.256;2023-04-15T12:45:47;5.25;;;2.45;;
12467;SDS011;57850;52.922;6.256;2023-04-15T12:48:13;10.30;;;2.78;;
12467;SDS011;57850;52.922;6.256;2023-04-15T12:50:40;8.27;;;2.65;;
12467;SDS011;57850;52.922;6.256;2023-04-15T12:53:06;10.77;;;2.65;;
12467;SDS011;57850;52.922;6.256;2023-04-15T12:55:33;6.15;;;2.45;;
12467;SDS011;57850;52.922;6.256;2023-04-15T12:57:59;8.52;;;2.47;;
12467;SDS011;57850;52.922;6.256;2023-04-15T13:00:27;9.65;;;2.35;;
12467;SDS011;57850;52.922;6.256;2023-04-15T13:02:54;7.13;;;2.25;;
12467;SDS011;57850;52.922;6.256;2023-04-15T13:05:21;7.60;;;2.30;;
12467;SDS011;57850;52.922;6.256;2023-04-15T13:07:48;4.97;;;2.63;;
12467;SDS011;57850;52.922;6.256;2023-04-15T13:10:17;8.73;;;1.85;;
12467;SDS011;57850;52.922;6.256;2023-04-15T13:12:44;3.72;;;1.70;;
12467;SDS011;57850;52.922;6.256;2023-04-15T13:15:13;7.22;;;1.90;;
12467;SDS011;57850;52.922;6.256;2023-04-15T13:17:43;3.03;;;1.65;;
12467;SDS011;57850;52.922;6.256;2023-04-15T13:20:11;4.93;;;1.80;;
12467;SDS011;57850;52.922;6.256;2023-04-15T13:22:38;8.05;;;1.85;;
12467;SDS011;57850;52.922;6.256;2023-04-15T13:25:05;4.45;;;1.80;;
12467;SDS011;57850;52.922;6.256;2023-04-15T13:27:32;10.65;;;2.70;;
12467;SDS011;57850;52.922;6.256;2023-04-15T13:29:59;9.27;;;2.88;;
12467;SDS011;57850;52.922;6.256;2023-04-15T13:32:27;10.27;;;2.20;;
12467;SDS011;57850;52.922;6.256;2023-04-15T13:34:53;5.88;;;1.77;;
12467;SDS011;57850;52.922;6.256;2023-04-15T13:37:21;11.85;;;2.60;;
12467;SDS011;57850;52.922;6.256;2023-04-15T13:39:51;7.95;;;2.20;;
12467;SDS011;57850;52.922;6.256;2023-04-15T13:42:18;8.77;;;2.60;;
12467;SDS011;57850;52.922;6.256;2023-04-15T13:44:45;9.02;;;2.17;;
12467;SDS011;57850;52.922;6.256;2023-04-15T13:47:11;7.20;;;2.58;;
12467;SDS011;57850;52.922;6.256;2023-04-15T13:49:40;7.65;;;2.63;;
12467;SDS011;57850;52.922;6.256;2023-04-15T13:52:06;9.43;;;3.58;;
12467;SDS011;57850;52.922;6.256;2023-04-15T13:54:34;9.40;;;2.75;;
12467;SDS011;57850;52.922;6.256;2023-04-15T13:57:01;7.93;;;2.40;;
12467;SDS011;57850;52.922;6.256;2023-04-15T13:59:27;9.23;;;2.67;;
12467;SDS011;57850;52.922;6.256;2023-04-15T14:01:54;11.98;;;2.05;;
12467;SDS011;57850;52.922;6.256;2023-04-15T14:04:21;10.30;;;2.30;;
12467;SDS011;57850;52.922;6.256;2023-04-15T14:06:47;7.07;;;2.20;;
12467;SDS011;57850;52.922;6.256;2023-04-15T14:09:14;6.15;;;3.25;;
12467;SDS011;57850;52.922;6.256;2023-04-15T14:11:42;11.35;;;3.15;;
12467;SDS011;57850;52.922;6.256;2023-04-15T14:14:08;9.50;;;2.88;;
12467;SDS011;57850;52.922;6.256;2023-04-15T14:16:35;9.07;;;2.03;;
12467;SDS011;57850;52.922;6.256;2023-04-15T14:19:01;10.00;;;2.70;;
12467;SDS011;57850;52.922;6.256;2023-04-15T14:21:28;5.60;;;1.98;;
12467;SDS011;57850;52.922;6.256;2023-04-15T14:23:56;10.93;;;2.38;;
12467;SDS011;57850;52.922;6.256;2023-04-15T14:26:22;9.40;;;2.10;;
12467;SDS011;57850;52.922;6.256;2023-04-15T14:28:50;6.75;;;2.75;;
12467;SDS011;57850;52.922;6.256;2023-04-15T14:31:17;7.22;;;2.65;;
12467;SDS011;57850;52.922;6.256;2023-04-15T14:33:44;7.20;;;2.38;;
12467;SDS011;57850;52.922;6.256;2023-04-15T14:36:10;8.48;;;2.30;;
12467;SDS011;57850;52.922;6.256;2023-04-15T14:38:37;6.20;;;2.00;;
12467;SDS011;57850;52.922;6.256;2023-04-15T14:41:04;8.15;;;2.05;;
12467;SDS011;57850;52.922;6.256;2023-04-15T14:43:31;10.93;;;2.25;;
12467;SDS011;57850;52.922;6.256;2023-04-15T14:45:59;9.85;;;2.95;;